Time;durP1;ratioP1;P1;durP2;ratioP2;P2;SDS_P1;SDS_P2;PMS_P1;PMS_P2;Temp;Humidity;BMP_temperature;BMP_pressure;BME280_temperature;BME280_humidity;BME280_pressure;Samples;Min_cycle;Max_cycle;Signal;HPM_P1;HPM_P2
2023/10/14 00:00:25;;;;;;;14.77;4.97;;;;;;;19.49;67.01;99414.78;4881083;29;20079;-71
2023/10/14 00:03:29;;;;;;;11.85;5.00;;;;;;;19.74;65.21;99416.50;4881002;29;20081;-73
2023/10/14 00:06:35;;;;;;;15.20;5.10;;;;;;;19.62;65.83;99416.97;4880876;29;20173;-70
2023/10/14 00:09:43;;;;;;;14.75;5.55;;;;;;;19.73;64.35;99414.03;4880016;29;20077;-71
2023/10/14 00:12:53;;;;;;;12.10;4.93;;;;;;;19.69;65.55;99397.63;4876874;29;20052;-71
2023/10/14 00:16:00;;;;;;;15.60;4.90;;;;;;;19.73;64.65;99422.81;4861921;29;20212;-71
2023/10/14 00:19:04;;;;;;;13.70;4.70;;;;;;;20.07;62.20;99412.97;4857075;29;20083;-71
2023/10/14 00:22:08;;;;;;;16.58;4.65;;;;;;;20.12;60.31;99440.69;4858844;29;20049;-71
2023/10/14 00:25:23;;;;;;;15.90;4.30;;;;;;;20.30;58.63;99410.47;4861476;29;20077;-71
2023/10/14 00:28:27;;;;;;;15.93;4.10;;;;;;;20.24;57.61;99416.44;4849221;29;20468;-71
2023/10/14 00:31:30;;;;;;;18.45;4.97;;;;;;;20.48;55.92;99412.88;4861280;29;20052;-71
2023/10/14 00:34:33;;;;;;;14.02;3.85;;;;;;;20.30;56.86;99402.50;4859981;29;20047;-71
2023/10/14 00:37:37;;;;;;;10.40;4.25;;;;;;;20.30;56.48;99408.63;4859453;29;20467;-71
2023/10/14 00:40:45;;;;;;;20.42;4.28;;;;;;;20.37;55.76;99411.44;4859407;29;20068;-71
2023/10/14 00:43:48;;;;;;;15.93;4.63;;;;;;;20.46;55.77;99413.06;4861663;29;20140;-71
2023/10/14 00:46:53;;;;;;;17.73;4.13;;;;;;;20.47;55.51;99409.41;4861405;29;20053;-71
2023/10/14 00:49:58;;;;;;;15.82;4.80;;;;;;;20.56;55.25;99402.28;4850171;29;20080;-71
2023/10/14 00:53:05;;;;;;;21.38;4.15;;;;;;;20.59;55.50;99400.09;4849979;29;20051;-71
2023/10/14 00:56:11;;;;;;;13.82;4.78;;;;;;;20.49;55.96;99402.09;4861484;29;20109;-71
2023/10/14 00:59:18;;;;;;;17.30;4.80;;;;;;;20.46;56.24;99389.19;4849959;29;20104;-71
2023/10/14 01:02:32;;;;;;;14.50;4.65;;;;;;;20.34;56.72;99398.50;4861205;29;20044;-71
2023/10/14 01:05:38;;;;;;;18.77;4.13;;;;;;;20.23;57.39;99383.78;4860847;29;20521;-71
2023/10/14 01:08:43;;;;;;;12.18;4.03;;;;;;;20.35;56.76;99386.88;4861259;29;20109;-71
2023/10/14 01:11:47;;;;;;;18.60;3.85;;;;;;;20.32;56.75;99403.16;4871038;29;20505;-71
2023/10/14 01:14:53;;;;;;;13.77;3.90;;;;;;;20.29;56.37;99408.78;4861001;29;20056;-71
2023/10/14 01:17:56;;;;;;;13.07;3.28;;;;;;;20.26;56.07;99401.16;4861014;29;20052;-71
2023/10/14 01:21:00;;;;;;;14.10;3.65;;;;;;;20.27;55.58;99406.31;4861020;29;20115;-71
2023/10/14 01:24:15;;;;;;;20.45;3.15;;;;;;;20.32;55.14;99398.66;4861385;29;20129;-71
2023/10/14 01:27:21;;;;;;;16.88;4.32;;;;;;;20.34;54.80;99396.66;4860887;29;20052;-71
2023/10/14 01:30:32;;;;;;;6.70;2.53;;;;;;;20.34;55.08;99407.28;4860903;29;20047;-71
2023/10/14 01:33:36;;;;;;;9.05;3.72;;;;;;;20.39;53.86;99412.09;4860283;29;20079;-71
2023/10/14 01:36:40;;;;;;;18.90;3.40;;;;;;;20.24;54.24;99405.84;4860749;29;20168;-71
2023/10/14 01:39:48;;;;;;;9.50;2.70;;;;;;;20.26;54.12;99391.41;4860790;29;20579;-71
2023/10/14 01:43:04;;;;;;;7.22;3.05;;;;;;;20.16;54.36;99386.25;4860711;29;20076;-71
2023/10/14 01:46:10;;;;;;;5.53;2.15;;;;;;;20.18;54.35;99381.63;4860825;29;20143;-71
2023/10/14 01:49:19;;;;;;;11.18;2.47;;;;;;;20.16;54.65;99383.59;4859691;29;20045;-71
2023/10/14 01:52:24;;;;;;;14.18;2.97;;;;;;;20.11;54.83;99383.31;4860737;29;20045;-71
2023/10/14 01:55:27;;;;;;;17.63;2.60;;;;;;;20.18;54.53;99402.84;4860464;29;20561;-71
2023/10/14 01:58:34;;;;;;;14.50;2.05;;;;;;;20.17;54.89;99390.59;4860788;29;20125;-71
2023/10/14 02:01:41;;;;;;;10.30;2.13;;;;;;;20.15;55.17;99416.47;4859525;29;20052;-71
2023/10/14 02:04:45;;;;;;;7.57;1.92;;;;;;;20.13;55.30;99442.34;4859661;29;20459;-71
2023/10/14 02:07:51;;;;;;;10.57;1.95;;;;;;;20.20;55.58;99416.78;4848922;29;20048;-71
2023/10/14 02:10:56;;;;;;;9.23;1.77;;;;;;;20.15;55.57;99392.56;4860313;29;20048;-71
2023/10/14 02:14:06;;;;;;;16.58;3.17;;;;;;;20.15;55.74;99399.72;4860091;29;20611;-71
2023/10/14 02:17:10;;;;;;;9.88;2.00;;;;;;;20.08;56.14;99402.22;4860370;29;20115;-71
2023/10/14 02:20:20;;;;;;;8.65;2.00;;;;;;;20.02;56.67;99402.88;4859485;29;20053;-71
2023/10/14 02:23:49;;;;;;;12.50;2.15;;;;;;;20.00;56.84;99383.63;4859381;29;20524;-71
2023/10/14 02:26:52;;;;;;;6.20;1.80;;;;;;;19.93;57.44;99393.28;4859409;29;20053;-71
2023/10/14 02:29:56;;;;;;;5.78;1.70;;;;;;;19.93;57.46;99387.97;4860174;29;20418;-71
2023/10/14 02:33:00;;;;;;;12.07;2.47;;;;;;;19.89;57.80;99379.53;4860151;29;20513;-71
2023/10/14 02:36:03;;;;;;;8.07;1.83;;;;;;;19.92;57.60;99383.66;4860158;29;20515;-71
2023/10/14 02:39:14;;;;;;;11.85;2.35;;;;;;;19.85;58.24;99382.69;4848606;29;20052;-71
2023/10/14 02:42:18;;;;;;;6.72;2.17;;;;;;;19.84;58.17;99399.59;4860023;29;20049;-71
2023/10/14 02:45:21;;;;;;;6.60;1.67;;;;;;;19.84;58.29;99394.28;4861884;29;20052;-71
2023/10/14 02:48:36;;;;;;;9.75;2.58;;;;;;;19.79;58.78;99378.06;4862770;29;20521;-71
2023/10/14 02:51:46;;;;;;;5.30;1.40;;;;;;;19.74;59.03;99373.25;4863717;29;20122;-71
2023/10/14 02:54:55;;;;;;;4.80;1.40;;;;;;;19.69;59.38;99376.41;4863454;29;20049;-71
2023/10/14 02:58:03;;;;;;;6.80;1.30;;;;;;;19.69;59.66;99392.31;4863759;29;20056;-71
2023/10/14 03:01:12;;;;;;;6.57;1.45;;;;;;;19.58;61.17;99397.06;4863324;29;20410;-71
2023/10/14 03:04:18;;;;;;;12.13;1.30;;;;;;;19.36;64.46;99404.69;4863634;29;20189;-71
2023/10/14 03:07:28;;;;;;;7.53;1.33;;;;;;;18.86;68.52;99432.06;4851829;29;20101;-71
2023/10/14 03:10:35;;;;;;;5.35;1.33;;;;;;;18.58;71.23;99442.00;4862455;29;20053;-71
2023/10/14 03:13:41;;;;;;;7.22;1.20;;;;;;;18.50;72.89;99452.53;4863066;29;20052;-71
2023/10/14 03:16:44;;;;;;;5.88;1.13;;;;;;;18.40;73.64;99435.94;4862836;29;20140;-71
2023/10/14 03:19:53;;;;;;;3.78;0.90;;;;;;;18.34;74.05;99421.53;4862999;29;20140;-71
2023/10/14 03:22:58;;;;;;;4.85;1.00;;;;;;;18.40;73.53;99420.06;4851524;29;20098;-71
2023/10/14 03:26:12;;;;;;;7.95;1.25;;;;;;;18.48;72.26;99407.72;4862959;29;20452;-71
2023/10/14 03:29:16;;;;;;;8.43;2.13;;;;;;;18.50;72.83;99412.84;4862957;29;20093;-71
2023/10/14 03:32:32;;;;;;;8.30;1.08;;;;;;;18.56;71.05;99410.38;4862679;29;20442;-71
2023/10/14 03:35:41;;;;;;;8.60;1.50;;;;;;;18.65;70.22;99431.59;4862811;29;20117;-71
2023/10/14 03:38:55;;;;;;;5.40;1.20;;;;;;;18.77;69.05;99404.72;4862574;29;20570;-71
2023/10/14 03:42:08;;;;;;;6.25;0.90;;;;;;;18.84;68.82;99412.03;4862461;29;20056;-71
2023/10/14 03:45:22;;;;;;;4.85;1.00;;;;;;;18.88;67.72;99410.72;4862573;29;20105;-71
2023/10/14 03:48:34;;;;;;;7.10;1.10;;;;;;;18.90;67.74;99433.41;4862708;29;20161;-71
2023/10/14 03:51:39;;;;;;;6.57;1.13;;;;;;;18.93;67.81;99421.66;4862658;29;20083;-71
2023/10/14 03:54:42;;;;;;;4.85;0.57;;;;;;;18.90;67.79;99432.56;4862591;29;20133;-71
2023/10/14 03:57:45;;;;;;;5.88;0.82;;;;;;;18.90;67.63;99440.53;4861656;29;20421;-71
2023/10/14 04:00:49;;;;;;;4.65;0.70;;;;;;;18.80;70.88;99454.72;4862131;29;20080;-71
2023/10/14 04:03:53;;;;;;;4.63;0.70;;;;;;;18.51;72.96;99438.34;4862103;29;20064;-71
2023/10/14 04:10:08;;;;;;;4.18;0.85;;;;;;;18.31;76.01;99432.41;4862336;29;20052;-71
2023/10/14 04:13:19;;;;;;;4.90;0.80;;;;;;;18.28;75.92;99417.69;4862078;29;20048;-71
2023/10/14 04:16:27;;;;;;;4.53;0.90;;;;;;;18.20;75.51;99425.59;4862087;29;20552;-71
2023/10/14 04:19:47;;;;;;;3.92;0.77;;;;;;;18.26;75.64;99445.31;4861944;29;20085;-71
2023/10/14 04:22:53;;;;;;;5.22;0.77;;;;;;;17.94;80.21;99541.13;4861899;29;20103;-71
2023/10/14 04:26:11;;;;;;;3.72;0.57;;;;;;;16.64;88.34;99564.91;4861953;29;20508;-70
2023/10/14 04:29:39;;;;;;;2.45;0.30;;;;;;;16.28;92.98;99588.44;4861733;29;20064;-70
2023/10/14 04:36:21;;;;;;;2.03;0.20;;;;;;;15.87;96.61;99622.00;4852020;29;20052;-70
2023/10/14 04:39:29;;;;;;;4.88;0.32;;;;;;;15.68;97.30;99629.88;4861449;29;20105;-71
2023/10/14 04:42:45;;;;;;;4.00;0.38;;;;;;;15.81;98.22;99622.53;4861331;29;20406;-71
2023/10/14 04:49:15;;;;;;;1.50;0.17;;;;;;;15.58;95.32;99648.25;4861443;29;20154;-70
2023/10/14 04:52:19;;;;;;;2.47;0.10;;;;;;;15.26;95.29;99643.97;4861345;29;20578;-70
2023/10/14 04:58:28;;;;;;;1.10;0.20;;;;;;;15.67;93.90;99671.19;4861533;29;20064;-71
2023/10/14 05:01:32;;;;;;;0.85;0.20;;;;;;;15.70;96.92;99667.47;4861026;29;20053;-71
2023/10/14 05:04:37;;;;;;;0.85;0.10;;;;;;;15.62;93.30;99680.44;4861358;29;20589;-71
2023/10/14 05:07:40;;;;;;;0.80;0.10;;;;;;;15.40;94.12;99690.19;4860809;29;20227;-71
2023/10/14 05:10:44;;;;;;;1.67;0.10;;;;;;;15.42;94.25;99706.69;4860831;29;20517;-70
2023/10/14 05:14:07;;;;;;;1.42;0.15;;;;;;;15.46;93.67;99718.63;4860808;29;20113;-71
2023/10/14 05:20:27;;;;;;;2.40;0.10;;;;;;;15.29;93.50;99724.50;4868120;29;20055;-71
2023/10/14 05:23:31;;;;;;;1.30;0.10;;;;;;;15.17;95.11;99733.44;4868136;29;20144;-71
2023/10/14 05:26:44;;;;;;;0.82;0.20;;;;;;;15.21;94.48;99754.13;4865558;29;20133;-71
2023/10/14 05:29:51;;;;;;;0.30;0.10;;;;;;;15.15;93.38;99761.69;4867755;29;20048;-71
2023/10/14 05:32:54;;;;;;;3.08;0.32;;;;;;;15.21;93.92;99766.44;4863208;29;20078;-71
2023/10/14 05:36:01;;;;;;;1.00;0.20;;;;;;;15.02;93.21;99761.88;4866466;29;20517;-71
2023/10/14 05:39:06;;;;;;;0.17;0.10;;;;;;;14.92;95.29;99777.59;4869967;29;20463;-71
2023/10/14 05:42:15;;;;;;;0.88;0.10;;;;;;;15.04;94.71;99789.75;4867528;29;20093;-71
2023/10/14 05:45:19;;;;;;;0.57;0.20;;;;;;;14.76;97.42;99804.34;4860839;29;20060;-71
2023/10/14 05:48:27;;;;;;;3.63;0.15;;;;;;;14.90;96.46;99821.66;4860543;29;20052;-70
2023/10/14 05:51:30;;;;;;;0.75;0.08;;;;;;;14.90;95.76;99832.19;4860507;29;20044;-70
2023/10/14 05:54:34;;;;;;;0.88;0.20;;;;;;;15.16;95.93;99837.94;4869116;29;20091;-71
2023/10/14 05:57:41;;;;;;;2.55;0.22;;;;;;;15.08;93.36;99867.53;4858508;29;20907;-71
2023/10/14 06:00:44;;;;;;;0.88;0.10;;;;;;;15.00;92.97;99877.03;4860167;29;20057;-71
2023/10/14 06:03:49;;;;;;;0.57;0.20;;;;;;;14.95;93.51;99890.53;4860084;29;20125;-73
2023/10/14 06:06:53;;;;;;;2.15;0.45;;;;;;;14.56;89.11;99924.34;4859531;29;20121;-71
2023/10/14 06:09:57;;;;;;;1.60;0.30;;;;;;;14.26;89.45;99971.38;4860204;29;20157;-71
2023/10/14 06:13:05;;;;;;;5.57;1.00;;;;;;;13.56;85.04;99988.88;4860253;29;20044;-75
2023/10/14 06:16:13;;;;;;;7.68;1.95;;;;;;;13.09;86.45;100008.84;4860476;29;20049;-70
2023/10/14 06:19:19;;;;;;;7.00;1.98;;;;;;;13.36;85.78;100011.31;4860374;29;20108;-70
2023/10/14 06:22:23;;;;;;;9.30;2.20;;;;;;;13.14;86.18;100027.72;4863958;29;20525;-71
2023/10/14 06:25:29;;;;;;;;;;;;;;;13.19;84.20;100030.03;4864658;29;20513;-69
2023/10/14 06:28:32;;;;;;;8.98;2.00;;;;;;;13.30;84.06;100037.16;4864008;29;19923;-70
2023/10/14 06:31:40;;;;;;;9.88;1.88;;;;;;;13.18;83.24;100054.63;4863815;29;20105;-74
2023/10/14 06:34:44;;;;;;;9.40;2.45;;;;;;;13.58;82.46;100063.13;4863845;29;20113;-74
2023/10/14 06:37:48;;;;;;;10.55;2.92;;;;;;;13.45;81.19;100070.22;4870125;29;20048;-74
2023/10/14 06:40:52;;;;;;;9.73;2.10;;;;;;;13.50;80.00;100083.88;4869027;29;20241;-70
2023/10/14 06:43:56;;;;;;;10.20;2.20;;;;;;;13.31;80.61;100097.47;4863328;29;20134;-71
2023/10/14 06:46:59;;;;;;;15.20;2.13;;;;;;;13.68;81.02;100095.66;4869274;29;20048;-68
2023/10/14 06:50:06;;;;;;;12.80;2.35;;;;;;;13.78;79.26;100097.63;4860476;29;20600;-71
2023/10/14 06:53:09;;;;;;;10.35;2.25;;;;;;;13.95;79.98;100107.78;4862865;29;20102;-71
2023/10/14 06:56:15;;;;;;;11.00;2.03;;;;;;;14.03;79.63;100100.16;4861983;29;20100;-72
2023/10/14 06:59:18;;;;;;;7.22;1.73;;;;;;;13.95;81.75;100105.13;4862218;29;20051;-72
2023/10/14 07:02:22;;;;;;;7.32;1.70;;;;;;;14.08;81.14;100108.53;4862154;29;20051;-70
2023/10/14 07:05:27;;;;;;;12.43;2.33;;;;;;;14.34;78.82;100111.03;4861978;29;20113;-72
2023/10/14 07:08:32;;;;;;;13.00;2.28;;;;;;;14.46;80.40;100110.13;4862151;29;20068;-72
2023/10/14 07:11:36;;;;;;;10.93;2.25;;;;;;;14.43;78.30;100120.88;4862248;29;20040;-71
2023/10/14 07:14:40;;;;;;;8.63;2.47;;;;;;;14.27;79.20;100128.22;4862040;29;20096;-71
2023/10/14 07:17:44;;;;;;;8.40;2.10;;;;;;;14.28;78.01;100127.25;4861945;29;20060;-72
2023/10/14 07:20:56;;;;;;;10.23;2.20;;;;;;;14.51;77.67;100131.69;4862225;29;20545;-72
2023/10/14 07:24:05;;;;;;;8.98;2.17;;;;;;;14.38;79.63;100136.97;4862559;29;20056;-78
2023/10/14 07:27:09;;;;;;;12.93;2.70;;;;;;;14.51;79.24;100144.81;4861911;29;20052;-71
2023/10/14 07:30:15;;;;;;;7.30;1.92;;;;;;;14.44;78.12;100156.75;4871231;29;20129;-68
2023/10/14 07:33:19;;;;;;;11.40;2.28;;;;;;;14.43;78.50;100160.34;4879731;29;20048;-67
2023/10/14 07:36:23;;;;;;;7.82;2.65;;;;;;;14.54;77.47;100162.19;4879886;29;20051;-67
2023/10/14 07:39:30;;;;;;;8.70;2.67;;;;;;;14.22;75.28;100168.00;4879917;29;20067;-72
2023/10/14 07:42:34;;;;;;;6.90;2.08;;;;;;;13.86;76.76;100169.72;4879339;29;20622;-72
2023/10/14 07:45:43;;;;;;;11.90;2.35;;;;;;;13.68;78.17;100174.47;4878883;29;20071;-72
2023/10/14 07:48:47;;;;;;;12.18;2.30;;;;;;;13.45;76.84;100172.63;4861403;29;20422;-73
2023/10/14 07:51:54;;;;;;;;;;;;;;;13.57;77.16;100181.47;4850422;29;20049;-72
2023/10/14 07:54:57;;;;;;;12.98;2.33;;;;;;;13.79;76.74;100188.66;4859726;29;19923;-72
2023/10/14 07:58:01;;;;;;;11.40;2.30;;;;;;;13.92;75.40;100195.56;4860033;29;20056;-72
2023/10/14 08:01:09;;;;;;;12.23;2.97;;;;;;;13.89;74.42;100194.94;4861287;29;20060;-72
2023/10/14 08:04:15;;;;;;;15.88;2.70;;;;;;;13.84;75.07;100197.88;4861108;29;20051;-71
2023/10/14 08:07:20;;;;;;;10.45;2.10;;;;;;;14.04;74.38;100201.75;4871119;29;20469;-71
2023/10/14 08:10:23;;;;;;;10.45;2.58;;;;;;;13.71;75.15;100203.16;4879057;29;20068;-72
2023/10/14 08:13:31;;;;;;;10.55;2.53;;;;;;;13.62;75.42;100211.69;4878615;29;20108;-72
2023/10/14 08:16:34;;;;;;;12.90;2.97;;;;;;;13.41;75.44;100210.56;4878622;29;20505;-72
2023/10/14 08:19:39;;;;;;;16.08;2.42;;;;;;;13.56;76.36;100214.78;4878915;29;20478;-72
2023/10/14 08:22:46;;;;;;;10.75;2.60;;;;;;;13.67;75.91;100209.59;4878542;29;20059;-73
2023/10/14 08:25:56;;;;;;;11.32;2.60;;;;;;;13.66;73.67;100223.69;4860017;29;20101;-72
2023/10/14 08:29:01;;;;;;;11.15;2.45;;;;;;;14.17;74.04;100207.78;4863847;29;20080;-72
2023/10/14 08:32:04;;;;;;;11.38;3.03;;;;;;;14.32;71.17;100221.59;4878884;29;20116;-72
2023/10/14 08:35:15;;;;;;;12.48;2.83;;;;;;;14.14;71.02;100218.53;4878718;29;20120;-71
2023/10/14 08:38:22;;;;;;;7.40;2.08;;;;;;;13.76;71.94;100229.13;4879021;29;20125;-72
2023/10/14 08:41:26;;;;;;;10.77;4.18;;;;;;;14.07;71.75;100233.06;4876966;29;20428;-72
2023/10/14 08:44:32;;;;;;;12.77;3.22;;;;;;;14.36;71.21;100243.28;4878740;29;20120;-71
2023/10/14 08:47:36;;;;;;;9.57;2.33;;;;;;;14.12;71.22;100257.22;4869296;29;20049;-74
2023/10/14 08:50:40;;;;;;;11.63;2.95;;;;;;;14.15;70.94;100258.81;4860625;29;20788;-72
2023/10/14 08:53:51;;;;;;;13.27;2.42;;;;;;;13.88;71.83;100269.47;4860302;29;20387;-72
2023/10/14 08:56:54;;;;;;;12.25;2.10;;;;;;;13.78;72.17;100278.94;4860156;29;20531;-72
2023/10/14 08:59:57;;;;;;;10.77;2.45;;;;;;;13.79;71.14;100270.13;4848338;29;20056;-72
2023/10/14 09:03:01;;;;;;;7.97;1.77;;;;;;;13.89;70.41;100287.75;4860090;29;20109;-72
2023/10/14 09:06:06;;;;;;;13.07;2.30;;;;;;;13.57;71.34;100295.25;4860428;29;20071;-72
2023/10/14 09:09:17;;;;;;;16.98;3.05;;;;;;;13.63;70.72;100300.09;4877364;29;20413;-73
2023/10/14 09:12:21;;;;;;;11.18;2.33;;;;;;;13.24;71.33;100314.06;4878588;29;20060;-72
2023/10/14 09:15:28;;;;;;;14.50;2.83;;;;;;;13.04;70.48;100310.16;4877940;29;20126;-72
2023/10/14 09:18:32;;;;;;;11.50;2.67;;;;;;;13.24;69.75;100304.47;4878311;29;20075;-72
2023/10/14 09:21:45;;;;;;;11.18;2.00;;;;;;;13.19;68.55;100306.53;4878337;29;20056;-72
2023/10/14 09:24:53;;;;;;;10.20;2.05;;;;;;;13.42;68.45;100309.41;4878170;29;20059;-72
2023/10/14 09:27:56;;;;;;;9.55;1.92;;;;;;;13.65;67.07;100306.06;4878336;29;20529;-72
2023/10/14 09:31:02;;;;;;;11.38;2.47;;;;;;;13.61;65.82;100309.84;4878457;29;20414;-72
2023/10/14 09:38:04;;;;;;;;;;;;;;;13.67;65.86;100319.94;4878188;29;20470;-72
2023/10/14 09:41:10;;;;;;;9.52;2.22;;;;;;;13.66;65.41;100313.00;4877890;29;19943;-72
2023/10/14 09:44:15;;;;;;;8.13;2.38;;;;;;;13.86;63.98;100319.53;4877625;29;20416;-72
2023/10/14 09:47:22;;;;;;;10.43;2.58;;;;;;;13.80;63.69;100324.34;4877464;29;20504;-72
2023/10/14 09:50:38;;;;;;;5.93;1.38;;;;;;;13.80;60.47;100321.72;4877234;29;20052;-72
2023/10/14 09:53:46;;;;;;;9.82;2.38;;;;;;;13.69;61.86;100322.47;4877413;29;20047;-72
2023/10/14 09:56:50;;;;;;;9.48;3.15;;;;;;;13.92;61.53;100341.91;4877949;29;20064;-72
2023/10/14 09:59:53;;;;;;;10.30;2.33;;;;;;;13.53;60.91;100341.06;4877561;29;20052;-72
2023/10/14 10:03:06;;;;;;;9.82;1.63;;;;;;;13.33;62.12;100336.28;4878161;29;20040;-72
2023/10/14 10:06:52;;;;;;;7.15;1.63;;;;;;;13.15;62.70;100347.06;4877685;29;20474;-72
2023/10/14 10:10:22;;;;;;;6.03;1.50;;;;;;;13.09;63.42;100344.00;4890747;23;20120;-72
2023/10/14 10:13:28;;;;;;;11.95;2.45;;;;;;;13.44;63.70;100346.94;4873583;29;20045;-72
2023/10/14 10:16:34;;;;;;;7.30;1.50;;;;;;;13.49;62.33;100350.91;4874240;29;20085;-72
2023/10/14 10:20:12;;;;;;;7.38;1.92;;;;;;;13.43;61.78;100346.09;4877662;29;20139;-72
2023/10/14 10:23:15;;;;;;;6.47;2.03;;;;;;;13.51;62.15;100342.94;4877603;29;20124;-72
2023/10/14 10:26:19;;;;;;;;;;;;;;;13.58;62.38;100351.25;4876216;29;20073;-72
2023/10/14 10:29:22;;;;;;;9.48;1.70;;;;;;;13.61;62.55;100344.00;4875763;29;20048;-72
2023/10/14 10:32:34;;;;;;;8.50;2.20;;;;;;;13.76;61.44;100343.91;4876843;29;20047;-72
2023/10/14 10:36:28;;;;;;;12.68;2.38;;;;;;;14.00;61.28;100352.72;4877350;29;20574;-72
2023/10/14 10:39:32;;;;;;;7.93;1.63;;;;;;;14.20;59.25;100343.47;4866259;29;20048;-72
2023/10/14 10:42:36;;;;;;;9.52;1.13;;;;;;;14.32;57.99;100350.47;4876806;29;20085;-72
2023/10/14 10:45:40;;;;;;;9.48;1.63;;;;;;;14.10;58.98;100345.91;4877059;29;20093;-72
2023/10/14 10:48:43;;;;;;;8.23;1.83;;;;;;;14.36;58.77;100336.19;4877484;29;20132;-72
2023/10/14 10:52:08;;;;;;;;;;;;;;;14.32;56.39;100336.47;4877393;29;20147;-72
2023/10/14 10:55:14;;;;;;;7.50;1.88;;;;;;;14.41;57.71;100333.19;4877153;29;19927;-73
2023/10/14 10:58:20;;;;;;;6.75;1.83;;;;;;;14.59;55.56;100331.09;4877033;29;20101;-73
2023/10/14 11:01:24;;;;;;;8.15;1.88;;;;;;;14.74;55.34;100339.66;4877018;29;20121;-73
2023/10/14 11:04:30;;;;;;;12.20;1.80;;;;;;;14.34;56.66;100329.34;4864515;29;20049;-72
2023/10/14 11:07:36;;;;;;;5.50;1.42;;;;;;;14.49;55.64;100343.19;4868599;29;20433;-72
2023/10/14 11:10:42;;;;;;;12.60;3.13;;;;;;;14.40;56.21;100347.31;4868793;29;20096;-72
2023/10/14 11:13:46;;;;;;;10.05;1.85;;;;;;;14.60;55.58;100332.75;4871441;29;20075;-71
2023/10/14 11:16:53;;;;;;;9.52;2.13;;;;;;;14.35;55.20;100331.00;4879231;29;20542;-71
2023/10/14 11:19:56;;;;;;;7.88;1.80;;;;;;;14.22;54.34;100324.94;4865789;29;20593;-72
2023/10/14 11:23:03;;;;;;;5.22;1.60;;;;;;;14.64;53.75;100335.06;4861670;29;20459;-73
2023/10/14 11:26:11;;;;;;;7.00;1.55;;;;;;;14.88;53.87;100328.97;4861439;29;20052;-72
2023/10/14 11:29:15;;;;;;;8.60;1.75;;;;;;;14.99;51.69;100341.34;4861586;29;20194;-72
2023/10/14 11:32:25;;;;;;;7.25;1.77;;;;;;;14.95;52.93;100329.34;4861212;29;20470;-72
2023/10/14 11:35:28;;;;;;;4.35;1.30;;;;;;;15.23;52.11;100341.31;4861351;29;20048;-70
2023/10/14 11:38:33;;;;;;;8.98;1.50;;;;;;;15.08;51.86;100335.38;4867210;29;20128;-71
2023/10/14 11:41:36;;;;;;;9.15;1.35;;;;;;;15.08;51.92;100341.50;4878545;29;20063;-71
2023/10/14 11:44:39;;;;;;;8.50;1.90;;;;;;;15.35;57.13;100345.69;4879474;29;20084;-81
2023/10/14 11:47:44;;;;;;;9.23;1.50;;;;;;;15.02;52.77;100347.22;4872926;29;20109;-73
2023/10/14 11:50:51;;;;;;;8.85;1.70;;;;;;;14.19;53.74;100363.63;4861036;29;20094;-72
2023/10/14 11:54:06;;;;;;;8.48;2.15;;;;;;;13.95;54.80;100371.44;4861070;29;20519;-72
2023/10/14 11:57:11;;;;;;;12.77;2.63;;;;;;;14.07;55.70;100369.78;4861290;29;20059;-72
2023/10/14 12:00:20;;;;;;;7.57;1.95;;;;;;;14.28;54.83;100366.59;4860664;29;20602;-73
2023/10/14 12:07:57;;;;;;;11.82;2.45;;;;;;;14.95;49.31;100364.41;4836548;29;20554;-72
2023/10/14 12:11:03;;;;;;;9.73;2.85;;;;;;;15.16;48.22;100358.53;4864628;29;20154;-80
2023/10/14 12:14:11;;;;;;;10.45;1.92;;;;;;;15.23;49.15;100357.97;4879308;29;20048;-80
2023/10/14 12:17:15;;;;;;;6.40;1.75;;;;;;;15.29;49.52;100357.50;4878652;29;20071;-79
2023/10/14 12:20:19;;;;;;;9.55;2.28;;;;;;;14.99;48.43;100357.13;4867396;29;20120;-80
2023/10/14 12:23:45;;;;;;;9.75;1.92;;;;;;;15.02;48.77;100357.75;4879624;29;20113;-79
2023/10/14 12:26:52;;;;;;;12.90;2.75;;;;;;;15.63;49.31;100362.00;4878634;29;20039;-65
2023/10/14 12:30:00;;;;;;;6.53;1.65;;;;;;;15.33;48.28;100368.66;4866841;29;20044;-79
2023/10/14 12:33:05;;;;;;;8.27;1.63;;;;;;;15.32;48.31;100366.97;4879159;29;20039;-79
2023/10/14 12:36:10;;;;;;;10.57;2.10;;;;;;;15.24;49.06;100369.31;4841472;29;20601;-79
2023/10/14 12:39:26;;;;;;;6.50;1.73;;;;;;;15.39;50.48;100375.25;4858645;29;20126;-79
2023/10/14 12:42:47;;;;;;;11.15;2.72;;;;;;;15.35;48.79;100380.75;4871402;29;20044;-80
2023/10/14 12:45:51;;;;;;;9.73;2.00;;;;;;;15.21;49.16;100383.56;4875171;29;20454;-82
2023/10/14 12:48:54;;;;;;;8.80;2.10;;;;;;;15.32;50.51;100380.16;4858568;29;20044;-79
2023/10/14 12:52:05;;;;;;;10.82;2.67;;;;;;;15.22;48.90;100389.66;4859149;29;20044;-79
2023/10/14 12:55:19;;;;;;;9.52;2.47;;;;;;;14.61;50.43;100390.56;4859710;29;20057;-77
2023/10/14 12:58:24;;;;;;;8.80;2.13;;;;;;;14.51;50.66;100400.03;4858885;29;20064;-77
2023/10/14 13:01:33;;;;;;;6.15;1.70;;;;;;;14.35;50.87;100399.41;4859363;29;20118;-72
2023/10/14 13:04:41;;;;;;;12.25;2.45;;;;;;;14.17;50.88;100398.91;4859184;29;20121;-73
2023/10/14 13:07:55;;;;;;;8.68;2.45;;;;;;;14.63;50.25;100398.31;4866180;29;20076;-72
2023/10/14 13:10:59;;;;;;;5.68;1.70;;;;;;;14.50;50.11;100408.00;4861521;29;20128;-71
2023/10/14 13:14:03;;;;;;;9.57;4.40;;;;;;;14.50;49.92;100408.84;4842977;29;20117;-72
2023/10/14 13:17:07;;;;;;;7.97;2.20;;;;;;;15.42;49.34;100412.75;4842095;29;20521;-71
2023/10/14 13:20:10;;;;;;;9.43;2.38;;;;;;;15.75;46.07;100404.13;4841591;29;20053;-70
2023/10/14 13:23:14;;;;;;;7.18;1.65;;;;;;;15.08;45.57;100409.13;4865729;29;20573;-71
2023/10/14 13:26:18;;;;;;;8.50;1.75;;;;;;;15.09;45.60;100411.66;4859302;29;20053;-71
2023/10/14 13:29:25;;;;;;;12.60;2.30;;;;;;;14.75;47.05;100415.88;4840133;29;20403;-71
2023/10/14 13:32:29;;;;;;;7.55;1.83;;;;;;;15.03;46.94;100420.00;4841190;29;20091;-72
2023/10/14 13:35:33;;;;;;;9.30;1.85;;;;;;;15.62;46.50;100426.25;4841569;29;20447;-71
2023/10/14 13:38:40;;;;;;;8.82;1.88;;;;;;;15.06;45.83;100421.53;4840987;29;20088;-76
2023/10/14 13:41:48;;;;;;;43.05;4.13;;;;;;;15.44;45.58;100424.00;4841030;29;20064;-71
2023/10/14 13:44:51;;;;;;;12.43;1.77;;;;;;;15.43;45.65;100422.34;4840722;29;20202;-70
2023/10/14 13:47:54;;;;;;;7.50;2.00;;;;;;;15.00;45.59;100440.44;4840512;29;20137;-72
2023/10/14 13:50:58;;;;;;;9.30;3.30;;;;;;;15.18;46.11;100427.72;4840152;29;20486;-71
2023/10/14 13:54:01;;;;;;;9.05;2.10;;;;;;;15.08;45.35;100428.38;4840314;29;20154;-70
2023/10/14 13:57:04;;;;;;;10.15;1.73;;;;;;;14.74;45.44;100437.91;4840440;29;20061;-70
2023/10/14 14:00:08;;;;;;;7.90;1.75;;;;;;;14.98;45.93;100430.00;4840190;29;20053;-72
2023/10/14 14:03:13;;;;;;;7.75;1.85;;;;;;;15.08;45.09;100436.28;4840344;29;20106;-72
2023/10/14 14:06:16;;;;;;;5.60;1.55;;;;;;;15.35;46.15;100443.16;4841854;29;20102;-72
2023/10/14 14:09:21;;;;;;;10.40;2.00;;;;;;;15.53;44.32;100431.22;4841104;29;20129;-71
2023/10/14 14:12:27;;;;;;;16.05;2.67;;;;;;;15.35;45.63;100433.44;4839500;29;20041;-72
2023/10/14 14:15:31;;;;;;;4.30;1.50;;;;;;;15.16;46.15;100437.56;4839993;29;20141;-71
2023/10/14 14:18:34;;;;;;;7.97;1.88;;;;;;;14.93;46.48;100434.75;4866031;29;20165;-70
2023/10/14 14:21:40;;;;;;;10.27;2.17;;;;;;;15.08;46.61;100436.28;4877573;29;20055;-71
2023/10/14 14:24:45;;;;;;;8.60;1.63;;;;;;;14.68;46.76;100442.72;4839831;29;20532;-71
2023/10/14 14:27:49;;;;;;;7.88;1.58;;;;;;;14.82;45.74;100450.50;4840005;29;20049;-71
2023/10/14 14:30:52;;;;;;;9.05;1.70;;;;;;;15.64;43.71;100450.69;4840324;29;20089;-72
2023/10/14 14:33:56;;;;;;;6.72;1.73;;;;;;;15.18;44.35;100446.16;4840364;29;20145;-73
2023/10/14 14:36:59;;;;;;;7.05;1.20;;;;;;;15.19;44.93;100445.19;4840562;29;20089;-71
2023/10/14 14:40:14;;;;;;;10.80;4.18;;;;;;;14.70;46.28;100454.00;4839918;29;20077;-72
2023/10/14 14:43:17;;;;;;;13.73;6.53;;;;;;;14.36;46.65;100454.53;4843826;29;20065;-71
2023/10/14 14:46:21;;;;;;;10.40;2.40;;;;;;;14.33;47.69;100464.44;4844108;29;20096;-71
2023/10/14 14:49:24;;;;;;;17.65;4.85;;;;;;;14.59;48.18;100458.22;4843834;29;20490;-69
2023/10/14 14:52:29;;;;;;;9.13;2.92;;;;;;;14.69;47.96;100466.31;4844539;29;20056;-73
2023/10/14 14:55:40;;;;;;;8.88;1.88;;;;;;;14.68;48.59;100469.91;4844004;29;20157;-73